sensor_id;sensor_type;location;lat;lon;timestamp;P1;durP1;ratioP1;P2;durP2;ratioP2
4810;SDS011;2419;51.276;6.472;2022-08-07T00:00:23;1.63;;;1.53;;
4810;SDS011;2419;51.276;6.472;2022-08-07T00:02:52;1.50;;;1.40;;
4810;SDS011;2419;51.276;6.472;2022-08-07T00:05:22;1.40;;;1.30;;
4810;SDS011;2419;51.276;6.472;2022-08-07T00:07:52;1.60;;;1.30;;
4810;SDS011;2419;51.276;6.472;2022-08-07T00:10:25;2.40;;;1.53;;
4810;SDS011;2419;51.276;6.472;2022-08-07T00:12:57;1.80;;;1.60;;
4810;SDS011;2419;51.276;6.472;2022-08-07T00:15:46;1.50;;;1.40;;
4810;SDS011;2419;51.276;6.472;2022-08-07T00:18:17;1.93;;;1.40;;
4810;SDS011;2419;51.276;6.472;2022-08-07T00:20:51;1.63;;;1.53;;
4810;SDS011;2419;51.276;6.472;2022-08-07T00:23:22;1.20;;;1.10;;
4810;SDS011;2419;51.276;6.472;2022-08-07T00:25:53;1.57;;;1.47;;
4810;SDS011;2419;51.276;6.472;2022-08-07T00:28:27;1.50;;;1.33;;
4810;SDS011;2419;51.276;6.472;2022-08-07T00:31:00;3.53;;;1.40;;
4810;SDS011;2419;51.276;6.472;2022-08-07T00:33:31;1.93;;;1.60;;
4810;SDS011;2419;51.276;6.472;2022-08-07T00:36:03;2.07;;;1.27;;
4810;SDS011;2419;51.276;6.472;2022-08-07T00:38:32;1.83;;;1.50;;
4810;SDS011;2419;51.276;6.472;2022-08-07T00:41:04;2.10;;;1.60;;
4810;SDS011;2419;51.276;6.472;2022-08-07T00:43:39;2.07;;;1.83;;
4810;SDS011;2419;51.276;6.472;2022-08-07T00:46:28;1.63;;;1.27;;
4810;SDS011;2419;51.276;6.472;2022-08-07T00:48:59;1.43;;;1.30;;
4810;SDS011;2419;51.276;6.472;2022-08-07T00:51:30;1.40;;;1.30;;
4810;SDS011;2419;51.276;6.472;2022-08-07T00:54:18;1.97;;;1.43;;
4810;SDS011;2419;51.276;6.472;2022-08-07T00:56:48;1.87;;;1.67;;
4810;SDS011;2419;51.276;6.472;2022-08-07T00:59:17;1.80;;;1.63;;
4810;SDS011;2419;51.276;6.472;2022-08-07T01:02:01;2.63;;;1.53;;
4810;SDS011;2419;51.276;6.472;2022-08-07T01:04:34;1.40;;;1.30;;
4810;SDS011;2419;51.276;6.472;2022-08-07T01:07:10;2.30;;;1.47;;
4810;SDS011;2419;51.276;6.472;2022-08-07T01:09:40;1.70;;;1.60;;
4810;SDS011;2419;51.276;6.472;2022-08-07T01:12:29;3.20;;;1.40;;
4810;SDS011;2419;51.276;6.472;2022-08-07T01:14:59;1.70;;;1.50;;
4810;SDS011;2419;51.276;6.472;2022-08-07T01:17:31;2.70;;;2.27;;
4810;SDS011;2419;51.276;6.472;2022-08-07T01:20:08;1.70;;;1.60;;
4810;SDS011;2419;51.276;6.472;2022-08-07T01:22:45;1.80;;;1.70;;
4810;SDS011;2419;51.276;6.472;2022-08-07T01:25:35;1.70;;;1.43;;
4810;SDS011;2419;51.276;6.472;2022-08-07T01:28:22;2.47;;;1.63;;
4810;SDS011;2419;51.276;6.472;2022-08-07T01:30:54;2.00;;;1.60;;
4810;SDS011;2419;51.276;6.472;2022-08-07T01:33:34;3.80;;;2.30;;
4810;SDS011;2419;51.276;6.472;2022-08-07T01:36:24;2.43;;;1.83;;
4810;SDS011;2419;51.276;6.472;2022-08-07T01:39:13;1.87;;;1.70;;
4810;SDS011;2419;51.276;6.472;2022-08-07T01:42:28;2.00;;;1.60;;
4810;SDS011;2419;51.276;6.472;2022-08-07T01:45:28;1.97;;;1.73;;
4810;SDS011;2419;51.276;6.472;2022-08-07T01:48:15;2.03;;;1.93;;
4810;SDS011;2419;51.276;6.472;2022-08-07T01:50:58;2.83;;;2.10;;
4810;SDS011;2419;51.276;6.472;2022-08-07T01:53:49;5.20;;;2.57;;
4810;SDS011;2419;51.276;6.472;2022-08-07T01:56:48;2.67;;;1.67;;
4810;SDS011;2419;51.276;6.472;2022-08-07T01:59:23;1.80;;;1.70;;
4810;SDS011;2419;51.276;6.472;2022-08-07T02:01:58;2.20;;;2.00;;
4810;SDS011;2419;51.276;6.472;2022-08-07T02:04:35;3.83;;;1.70;;
4810;SDS011;2419;51.276;6.472;2022-08-07T02:07:25;2.27;;;2.07;;
4810;SDS011;2419;51.276;6.472;2022-08-07T02:10:21;2.20;;;2.00;;
4810;SDS011;2419;51.276;6.472;2022-08-07T02:12:54;2.53;;;1.90;;
4810;SDS011;2419;51.276;6.472;2022-08-07T02:15:32;1.40;;;1.30;;
4810;SDS011;2419;51.276;6.472;2022-08-07T02:18:02;1.83;;;1.60;;
4810;SDS011;2419;51.276;6.472;2022-08-07T02:20:34;2.07;;;1.80;;
4810;SDS011;2419;51.276;6.472;2022-08-07T02:23:03;2.57;;;1.90;;
4810;SDS011;2419;51.276;6.472;2022-08-07T02:25:38;2.27;;;1.73;;
4810;SDS011;2419;51.276;6.472;2022-08-07T02:28:29;2.33;;;1.77;;
4810;SDS011;2419;51.276;6.472;2022-08-07T02:31:02;2.00;;;1.77;;
4810;SDS011;2419;51.276;6.472;2022-08-07T02:33:52;1.90;;;1.80;;
4810;SDS011;2419;51.276;6.472;2022-08-07T02:36:44;2.77;;;1.93;;
4810;SDS011;2419;51.276;6.472;2022-08-07T02:39:16;2.10;;;1.90;;
4810;SDS011;2419;51.276;6.472;2022-08-07T02:42:05;3.43;;;1.97;;
4810;SDS011;2419;51.276;6.472;2022-08-07T02:44:43;2.47;;;1.80;;
4810;SDS011;2419;51.276;6.472;2022-08-07T02:47:16;3.97;;;2.63;;
4810;SDS011;2419;51.276;6.472;2022-08-07T02:50:15;2.23;;;2.03;;
4810;SDS011;2419;51.276;6.472;2022-08-07T02:52:45;3.50;;;2.40;;
4810;SDS011;2419;51.276;6.472;2022-08-07T02:55:19;2.20;;;2.00;;
4810;SDS011;2419;51.276;6.472;2022-08-07T02:58:10;2.87;;;1.80;;
4810;SDS011;2419;51.276;6.472;2022-08-07T03:00:42;2.37;;;2.17;;
4810;SDS011;2419;51.276;6.472;2022-08-07T03:03:15;1.47;;;1.37;;
4810;SDS011;2419;51.276;6.472;2022-08-07T03:05:51;2.13;;;1.90;;
4810;SDS011;2419;51.276;6.472;2022-08-07T03:08:21;2.23;;;1.83;;
4810;SDS011;2419;51.276;6.472;2022-08-07T03:10:56;1.83;;;1.63;;
4810;SDS011;2419;51.276;6.472;2022-08-07T03:13:32;2.50;;;1.70;;
4810;SDS011;2419;51.276;6.472;2022-08-07T03:16:16;2.43;;;1.80;;
4810;SDS011;2419;51.276;6.472;2022-08-07T03:18:53;2.80;;;1.90;;
4810;SDS011;2419;51.276;6.472;2022-08-07T03:21:22;1.97;;;1.80;;
4810;SDS011;2419;51.276;6.472;2022-08-07T03:23:52;1.90;;;1.70;;
4810;SDS011;2419;51.276;6.472;2022-08-07T03:26:41;1.90;;;1.70;;
4810;SDS011;2419;51.276;6.472;2022-08-07T03:29:27;1.53;;;1.40;;
4810;SDS011;2419;51.276;6.472;2022-08-07T03:32:06;2.83;;;2.00;;
4810;SDS011;2419;51.276;6.472;2022-08-07T03:34:39;2.33;;;1.70;;
4810;SDS011;2419;51.276;6.472;2022-08-07T03:37:30;2.00;;;1.83;;
4810;SDS011;2419;51.276;6.472;2022-08-07T03:40:19;2.07;;;1.87;;
4810;SDS011;2419;51.276;6.472;2022-08-07T03:42:57;2.37;;;1.83;;
4810;SDS011;2419;51.276;6.472;2022-08-07T03:45:30;2.20;;;1.60;;
4810;SDS011;2419;51.276;6.472;2022-08-07T03:48:11;1.73;;;1.63;;
4810;SDS011;2419;51.276;6.472;2022-08-07T03:50:39;2.07;;;1.80;;
4810;SDS011;2419;51.276;6.472;2022-08-07T03:53:21;3.03;;;2.00;;
4810;SDS011;2419;51.276;6.472;2022-08-07T03:56:10;2.60;;;1.80;;
4810;SDS011;2419;51.276;6.472;2022-08-07T03:59:00;2.30;;;1.60;;
4810;SDS011;2419;51.276;6.472;2022-08-07T04:01:39;2.50;;;1.90;;
4810;SDS011;2419;51.276;6.472;2022-08-07T04:04:15;1.63;;;1.53;;
4810;SDS011;2419;51.276;6.472;2022-08-07T04:06:50;2.07;;;1.90;;
4810;SDS011;2419;51.276;6.472;2022-08-07T04:09:21;2.40;;;1.83;;
4810;SDS011;2419;51.276;6.472;2022-08-07T04:12:04;2.20;;;2.00;;
4810;SDS011;2419;51.276;6.472;2022-08-07T04:14:52;1.93;;;1.77;;
4810;SDS011;2419;51.276;6.472;2022-08-07T04:17:22;3.10;;;1.67;;
4810;SDS011;2419;51.276;6.472;2022-08-07T04:20:12;2.30;;;1.83;;
4810;SDS011;2419;51.276;6.472;2022-08-07T04:22:41;2.73;;;2.20;;
4810;SDS011;2419;51.276;6.472;2022-08-07T04:25:20;3.67;;;1.87;;
4810;SDS011;2419;51.276;6.472;2022-08-07T04:27:54;3.23;;;2.77;;
4810;SDS011;2419;51.276;6.472;2022-08-07T04:30:27;3.27;;;2.27;;
4810;SDS011;2419;51.276;6.472;2022-08-07T04:33:16;2.73;;;2.10;;
4810;SDS011;2419;51.276;6.472;2022-08-07T04:35:50;1.93;;;1.67;;
4810;SDS011;2419;51.276;6.472;2022-08-07T04:38:25;2.60;;;2.10;;
4810;SDS011;2419;51.276;6.472;2022-08-07T04:40:55;2.53;;;2.03;;
4810;SDS011;2419;51.276;6.472;2022-08-07T04:43:31;4.00;;;2.37;;
4810;SDS011;2419;51.276;6.472;2022-08-07T04:46:22;2.70;;;2.07;;
4810;SDS011;2419;51.276;6.472;2022-08-07T04:49:06;3.20;;;2.50;;
4810;SDS011;2419;51.276;6.472;2022-08-07T04:51:50;3.83;;;2.50;;
4810;SDS011;2419;51.276;6.472;2022-08-07T04:54:30;4.50;;;2.47;;
4810;SDS011;2419;51.276;6.472;2022-08-07T04:57:06;3.60;;;2.80;;
4810;SDS011;2419;51.276;6.472;2022-08-07T05:00:03;4.00;;;3.13;;
4810;SDS011;2419;51.276;6.472;2022-08-07T05:02:46;6.50;;;2.70;;
4810;SDS011;2419;51.276;6.472;2022-08-07T05:05:25;5.40;;;3.13;;
4810;SDS011;2419;51.276;6.472;2022-08-07T05:08:19;4.53;;;3.40;;
4810;SDS011;2419;51.276;6.472;2022-08-07T05:11:13;5.00;;;2.80;;
4810;SDS011;2419;51.276;6.472;2022-08-07T05:13:54;4.40;;;3.00;;
4810;SDS011;2419;51.276;6.472;2022-08-07T05:16:48;2.57;;;2.10;;
4810;SDS011;2419;51.276;6.472;2022-08-07T05:19:25;2.67;;;1.87;;
4810;SDS011;2419;51.276;6.472;2022-08-07T05:22:10;2.70;;;2.10;;
4810;SDS011;2419;51.276;6.472;2022-08-07T05:24:55;1.93;;;1.73;;
4810;SDS011;2419;51.276;6.472;2022-08-07T05:27:27;2.77;;;1.93;;
4810;SDS011;2419;51.276;6.472;2022-08-07T05:30:19;2.03;;;1.80;;
4810;SDS011;2419;51.276;6.472;2022-08-07T05:32:59;4.03;;;1.90;;
4810;SDS011;2419;51.276;6.472;2022-08-07T05:35:30;2.67;;;1.90;;
4810;SDS011;2419;51.276;6.472;2022-08-07T05:38:08;2.00;;;1.80;;
4810;SDS011;2419;51.276;6.472;2022-08-07T05:40:59;2.43;;;1.90;;
4810;SDS011;2419;51.276;6.472;2022-08-07T05:43:40;2.80;;;2.03;;
4810;SDS011;2419;51.276;6.472;2022-08-07T05:46:30;2.20;;;2.00;;
4810;SDS011;2419;51.276;6.472;2022-08-07T05:49:01;3.80;;;1.97;;
4810;SDS011;2419;51.276;6.472;2022-08-07T05:51:41;2.20;;;1.80;;
4810;SDS011;2419;51.276;6.472;2022-08-07T05:54:15;2.60;;;2.13;;
4810;SDS011;2419;51.276;6.472;2022-08-07T05:57:07;2.13;;;1.93;;
4810;SDS011;2419;51.276;6.472;2022-08-07T05:59:38;2.77;;;2.23;;
4810;SDS011;2419;51.276;6.472;2022-08-07T06:02:26;2.80;;;2.47;;
4810;SDS011;2419;51.276;6.472;2022-08-07T06:05:01;2.90;;;1.97;;
4810;SDS011;2419;51.276;6.472;2022-08-07T06:07:32;2.63;;;2.23;;
4810;SDS011;2419;51.276;6.472;2022-08-07T06:10:22;3.67;;;2.87;;
4810;SDS011;2419;51.276;6.472;2022-08-07T06:12:53;3.10;;;2.13;;
4810;SDS011;2419;51.276;6.472;2022-08-07T06:15:22;3.57;;;2.73;;
4810;SDS011;2419;51.276;6.472;2022-08-07T06:18:10;4.20;;;3.30;;
4810;SDS011;2419;51.276;6.472;2022-08-07T06:20:41;2.63;;;2.43;;
4810;SDS011;2419;51.276;6.472;2022-08-07T06:23:32;4.20;;;2.27;;
4810;SDS011;2419;51.276;6.472;2022-08-07T06:26:22;2.60;;;2.33;;
4810;SDS011;2419;51.276;6.472;2022-08-07T06:28:56;4.03;;;2.90;;
4810;SDS011;2419;51.276;6.472;2022-08-07T06:31:29;3.40;;;2.33;;
4810;SDS011;2419;51.276;6.472;2022-08-07T06:34:18;3.13;;;2.43;;
4810;SDS011;2419;51.276;6.472;2022-08-07T06:36:55;2.97;;;2.43;;
4810;SDS011;2419;51.276;6.472;2022-08-07T06:39:29;3.70;;;2.40;;
4810;SDS011;2419;51.276;6.472;2022-08-07T06:42:19;3.50;;;2.70;;
4810;SDS011;2419;51.276;6.472;2022-08-07T06:45:12;3.23;;;2.40;;
4810;SDS011;2419;51.276;6.472;2022-08-07T06:47:49;3.13;;;2.83;;
4810;SDS011;2419;51.276;6.472;2022-08-07T06:50:30;4.30;;;2.93;;
4810;SDS011;2419;51.276;6.472;2022-08-07T06:53:03;3.97;;;2.80;;
4810;SDS011;2419;51.276;6.472;2022-08-07T06:55:54;5.20;;;2.87;;
4810;SDS011;2419;51.276;6.472;2022-08-07T06:58:29;3.53;;;2.70;;
4810;SDS011;2419;51.276;6.472;2022-08-07T07:01:07;3.33;;;2.40;;
4810;SDS011;2419;51.276;6.472;2022-08-07T07:03:39;2.30;;;2.10;;
4810;SDS011;2419;51.276;6.472;2022-08-07T07:06:15;4.27;;;1.90;;
4810;SDS011;2419;51.276;6.472;2022-08-07T07:08:49;3.60;;;1.77;;
4810;SDS011;2419;51.276;6.472;2022-08-07T07:11:17;2.50;;;2.03;;
4810;SDS011;2419;51.276;6.472;2022-08-07T07:14:06;1.83;;;1.73;;
4810;SDS011;2419;51.276;6.472;2022-08-07T07:16:37;2.00;;;1.73;;
4810;SDS011;2419;51.276;6.472;2022-08-07T07:19:19;1.57;;;1.43;;
4810;SDS011;2419;51.276;6.472;2022-08-07T07:22:11;2.10;;;1.90;;
4810;SDS011;2419;51.276;6.472;2022-08-07T07:25:02;2.93;;;1.83;;
4810;SDS011;2419;51.276;6.472;2022-08-07T07:27:53;1.73;;;1.63;;
4810;SDS011;2419;51.276;6.472;2022-08-07T07:30:30;2.40;;;2.10;;
4810;SDS011;2419;51.276;6.472;2022-08-07T07:33:06;4.40;;;2.00;;
4810;SDS011;2419;51.276;6.472;2022-08-07T07:35:40;1.43;;;1.33;;
4810;SDS011;2419;51.276;6.472;2022-08-07T07:38:29;1.93;;;1.50;;
4810;SDS011;2419;51.276;6.472;2022-08-07T07:41:03;1.90;;;1.70;;
4810;SDS011;2419;51.276;6.472;2022-08-07T07:43:35;3.10;;;2.00;;
4810;SDS011;2419;51.276;6.472;2022-08-07T07:46:27;2.70;;;1.70;;
4810;SDS011;2419;51.276;6.472;2022-08-07T07:49:18;1.90;;;1.50;;
4810;SDS011;2419;51.276;6.472;2022-08-07T07:52:07;1.53;;;1.43;;
4810;SDS011;2419;51.276;6.472;2022-08-07T07:54:38;1.40;;;1.20;;
4810;SDS011;2419;51.276;6.472;2022-08-07T07:57:17;2.80;;;1.57;;
4810;SDS011;2419;51.276;6.472;2022-08-07T08:00:07;1.70;;;1.37;;
4810;SDS011;2419;51.276;6.472;2022-08-07T08:02:39;1.77;;;1.33;;
4810;SDS011;2419;51.276;6.472;2022-08-07T08:05:29;2.80;;;1.57;;
4810;SDS011;2419;51.276;6.472;2022-08-07T08:08:18;0.93;;;0.93;;
4810;SDS011;2419;51.276;6.472;2022-08-07T08:11:01;1.20;;;0.87;;
4810;SDS011;2419;51.276;6.472;2022-08-07T08:13:41;1.03;;;0.93;;
4810;SDS011;2419;51.276;6.472;2022-08-07T08:16:22;1.60;;;1.10;;
4810;SDS011;2419;51.276;6.472;2022-08-07T08:18:56;1.40;;;0.90;;
4810;SDS011;2419;51.276;6.472;2022-08-07T08:21:48;1.00;;;0.90;;
4810;SDS011;2419;51.276;6.472;2022-08-07T08:24:37;1.13;;;1.00;;
4810;SDS011;2419;51.276;6.472;2022-08-07T08:27:45;1.30;;;1.20;;
4810;SDS011;2419;51.276;6.472;2022-08-07T08:30:23;1.20;;;1.10;;
4810;SDS011;2419;51.276;6.472;2022-08-07T08:32:56;1.10;;;0.93;;
4810;SDS011;2419;51.276;6.472;2022-08-07T08:35:27;1.87;;;1.40;;
4810;SDS011;2419;51.276;6.472;2022-08-07T08:38:14;0.97;;;0.83;;
4810;SDS011;2419;51.276;6.472;2022-08-07T08:40:46;1.10;;;1.00;;
4810;SDS011;2419;51.276;6.472;2022-08-07T08:43:27;1.10;;;0.93;;
4810;SDS011;2419;51.276;6.472;2022-08-07T08:46:08;2.27;;;1.00;;
4810;SDS011;2419;51.276;6.472;2022-08-07T08:48:42;1.20;;;1.10;;
4810;SDS011;2419;51.276;6.472;2022-08-07T08:51:18;0.97;;;0.87;;
4810;SDS011;2419;51.276;6.472;2022-08-07T08:54:29;1.20;;;1.03;;
4810;SDS011;2419;51.276;6.472;2022-08-07T08:57:07;0.90;;;0.80;;
4810;SDS011;2419;51.276;6.472;2022-08-07T08:59:44;0.80;;;0.80;;
4810;SDS011;2419;51.276;6.472;2022-08-07T09:02:22;0.90;;;0.80;;
4810;SDS011;2419;51.276;6.472;2022-08-07T09:05:09;1.13;;;1.03;;
4810;SDS011;2419;51.276;6.472;2022-08-07T09:07:43;1.43;;;1.10;;
4810;SDS011;2419;51.276;6.472;2022-08-07T09:10:28;1.53;;;1.00;;
4810;SDS011;2419;51.276;6.472;2022-08-07T09:13:11;1.37;;;1.00;;
4810;SDS011;2419;51.276;6.472;2022-08-07T09:16:03;1.17;;;1.07;;
4810;SDS011;2419;51.276;6.472;2022-08-07T09:19:01;1.10;;;1.00;;
4810;SDS011;2419;51.276;6.472;2022-08-07T09:22:05;1.40;;;0.90;;
4810;SDS011;2419;51.276;6.472;2022-08-07T09:25:03;1.10;;;1.00;;
4810;SDS011;2419;51.276;6.472;2022-08-07T09:27:49;1.10;;;1.00;;
4810;SDS011;2419;51.276;6.472;2022-08-07T09:30:28;2.20;;;1.43;;
4810;SDS011;2419;51.276;6.472;2022-08-07T09:33:07;1.10;;;1.00;;
4810;SDS011;2419;51.276;6.472;2022-08-07T09:36:05;1.23;;;1.00;;
4810;SDS011;2419;51.276;6.472;2022-08-07T09:38:46;1.13;;;1.00;;
4810;SDS011;2419;51.276;6.472;2022-08-07T09:41:22;2.30;;;1.10;;
4810;SDS011;2419;51.276;6.472;2022-08-07T09:44:24;1.20;;;1.10;;
4810;SDS011;2419;51.276;6.472;2022-08-07T09:47:26;1.40;;;1.30;;
4810;SDS011;2419;51.276;6.472;2022-08-07T09:50:24;4.07;;;1.20;;
4810;SDS011;2419;51.276;6.472;2022-08-07T09:53:06;1.17;;;1.08;;
4810;SDS011;2419;51.276;6.472;2022-08-07T09:55:45;1.95;;;1.10;;
4810;SDS011;2419;51.276;6.472;2022-08-07T10:01:39;0.90;;;0.90;;
4810;SDS011;2419;51.276;6.472;2022-08-07T10:04:23;1.20;;;1.10;;
4810;SDS011;2419;51.276;6.472;2022-08-07T10:07:12;2.43;;;1.20;;
4810;SDS011;2419;51.276;6.472;2022-08-07T10:10:08;1.53;;;1.23;;
4810;SDS011;2419;51.276;6.472;2022-08-07T10:12:52;1.47;;;1.00;;
4810;SDS011;2419;51.276;6.472;2022-08-07T10:16:14;1.13;;;1.03;;
4810;SDS011;2419;51.276;6.472;2022-08-07T10:19:05;1.30;;;1.20;;
4810;SDS011;2419;51.276;6.472;2022-08-07T10:21:48;2.90;;;1.30;;
4810;SDS011;2419;51.276;6.472;2022-08-07T10:25:03;2.23;;;1.30;;
4810;SDS011;2419;51.276;6.472;2022-08-07T10:30:42;1.10;;;1.00;;
4810;SDS011;2419;51.276;6.472;2022-08-07T10:33:47;2.87;;;1.30;;
4810;SDS011;2419;51.276;6.472;2022-08-07T10:36:44;2.60;;;1.00;;
4810;SDS011;2419;51.276;6.472;2022-08-07T10:39:24;2.90;;;1.33;;
4810;SDS011;2419;51.276;6.472;2022-08-07T10:42:24;1.20;;;1.10;;
4810;SDS011;2419;51.276;6.472;2022-08-07T10:45:06;1.40;;;1.30;;
4810;SDS011;2419;51.276;6.472;2022-08-07T10:47:46;3.43;;;1.30;;
4810;SDS011;2419;51.276;6.472;2022-08-07T10:50:30;1.47;;;1.27;;
4810;SDS011;2419;51.276;6.472;2022-08-07T10:53:20;1.93;;;1.30;;
4810;SDS011;2419;51.276;6.472;2022-08-07T10:55:57;1.30;;;1.20;;
4810;SDS011;2419;51.276;6.472;2022-08-07T10:58:34;1.20;;;1.10;;
4810;SDS011;2419;51.276;6.472;2022-08-07T11:01:27;1.30;;;1.20;;
4810;SDS011;2419;51.276;6.472;2022-08-07T11:04:25;2.10;;;1.30;;
4810;SDS011;2419;51.276;6.472;2022-08-07T11:07:08;1.10;;;1.00;;
4810;SDS011;2419;51.276;6.472;2022-08-07T11:10:11;1.37;;;1.10;;
4810;SDS011;2419;51.276;6.472;2022-08-07T11:12:45;1.37;;;1.27;;
4810;SDS011;2419;51.276;6.472;2022-08-07T11:15:28;1.20;;;1.10;;
4810;SDS011;2419;51.276;6.472;2022-08-07T11:18:02;1.08;;;1.02;;
4810;SDS011;2419;51.276;6.472;2022-08-07T11:20:40;1.20;;;1.10;;
4810;SDS011;2419;51.276;6.472;2022-08-07T11:23:17;1.10;;;1.00;;
4810;SDS011;2419;51.276;6.472;2022-08-07T11:26:07;1.00;;;0.90;;
4810;SDS011;2419;51.276;6.472;2022-08-07T11:28:42;1.63;;;1.10;;
4810;SDS011;2419;51.276;6.472;2022-08-07T11:31:22;3.17;;;1.25;;
4810;SDS011;2419;51.276;6.472;2022-08-07T11:34:03;1.10;;;1.00;;
4810;SDS011;2419;51.276;6.472;2022-08-07T11:36:43;2.42;;;1.10;;
4810;SDS011;2419;51.276;6.472;2022-08-07T11:39:30;1.05;;;0.93;;
4810;SDS011;2419;51.276;6.472;2022-08-07T11:42:32;1.10;;;1.00;;
4810;SDS011;2419;51.276;6.472;2022-08-07T11:45:12;1.88;;;1.23;;
4810;SDS011;2419;51.276;6.472;2022-08-07T11:51:10;1.17;;;1.08;;
4810;SDS011;2419;51.276;6.472;2022-08-07T11:54:16;1.20;;;1.10;;
4810;SDS011;2419;51.276;6.472;2022-08-07T11:56:59;1.13;;;1.03;;
4810;SDS011;2419;51.276;6.472;2022-08-07T12:06:23;1.43;;;1.20;;
4810;SDS011;2419;51.276;6.472;2022-08-07T12:09:06;1.70;;;1.20;;
4810;SDS011;2419;51.276;6.472;2022-08-07T12:11:44;1.50;;;1.20;;
4810;SDS011;2419;51.276;6.472;2022-08-07T12:14:37;2.13;;;1.20;;
4810;SDS011;2419;51.276;6.472;2022-08-07T12:17:30;1.30;;;1.03;;
4810;SDS011;2419;51.276;6.472;2022-08-07T12:20:07;2.10;;;1.30;;
4810;SDS011;2419;51.276;6.472;2022-08-07T12:23:06;2.00;;;1.10;;
4810;SDS011;2419;51.276;6.472;2022-08-07T12:25:47;2.30;;;1.30;;
4810;SDS011;2419;51.276;6.472;2022-08-07T12:28:44;1.40;;;1.30;;
4810;SDS011;2419;51.276;6.472;2022-08-07T12:31:21;1.20;;;1.10;;
4810;SDS011;2419;51.276;6.472;2022-08-07T12:34:16;1.30;;;1.03;;
4810;SDS011;2419;51.276;6.472;2022-08-07T12:36:48;1.30;;;1.20;;
4810;SDS011;2419;51.276;6.472;2022-08-07T12:39:18;1.10;;;1.00;;
4810;SDS011;2419;51.276;6.472;2022-08-07T12:42:09;1.30;;;1.13;;
4810;SDS011;2419;51.276;6.472;2022-08-07T12:44:38;2.00;;;1.10;;
4810;SDS011;2419;51.276;6.472;2022-08-07T12:47:12;1.63;;;1.10;;
4810;SDS011;2419;51.276;6.472;2022-08-07T12:49:59;1.37;;;1.27;;
4810;SDS011;2419;51.276;6.472;2022-08-07T12:52:55;1.67;;;0.90;;
4810;SDS011;2419;51.276;6.472;2022-08-07T12:55:45;1.20;;;1.10;;
4810;SDS011;2419;51.276;6.472;2022-08-07T12:58:30;1.53;;;1.10;;
4810;SDS011;2419;51.276;6.472;2022-08-07T13:01:06;1.00;;;1.00;;
4810;SDS011;2419;51.276;6.472;2022-08-07T13:03:47;1.17;;;1.07;;
4810;SDS011;2419;51.276;6.472;2022-08-07T13:09:33;1.20;;;1.10;;
4810;SDS011;2419;51.276;6.472;2022-08-07T13:12:40;1.23;;;1.03;;
4810;SDS011;2419;51.276;6.472;2022-08-07T13:15:21;1.10;;;1.10;;
4810;SDS011;2419;51.276;6.472;2022-08-07T13:18:15;1.43;;;1.33;;
4810;SDS011;2419;51.276;6.472;2022-08-07T13:20:55;2.60;;;1.53;;
4810;SDS011;2419;51.276;6.472;2022-08-07T13:23:33;1.07;;;0.97;;
4810;SDS011;2419;51.276;6.472;2022-08-07T13:26:30;1.10;;;1.00;;
4810;SDS011;2419;51.276;6.472;2022-08-07T13:29:05;1.00;;;0.90;;
4810;SDS011;2419;51.276;6.472;2022-08-07T13:31:39;1.10;;;1.00;;
4810;SDS011;2419;51.276;6.472;2022-08-07T13:34:27;1.13;;;1.00;;
4810;SDS011;2419;51.276;6.472;2022-08-07T13:37:02;1.73;;;1.10;;
4810;SDS011;2419;51.276;6.472;2022-08-07T13:40:02;1.10;;;1.00;;
4810;SDS011;2419;51.276;6.472;2022-08-07T13:42:57;0.83;;;0.83;;
4810;SDS011;2419;51.276;6.472;2022-08-07T13:45:28;1.10;;;1.00;;
4810;SDS011;2419;51.276;6.472;2022-08-07T13:48:19;1.10;;;1.00;;
4810;SDS011;2419;51.276;6.472;2022-08-07T13:50:59;1.57;;;0.93;;
4810;SDS011;2419;51.276;6.472;2022-08-07T13:53:50;0.90;;;0.90;;
4810;SDS011;2419;51.276;6.472;2022-08-07T13:56:29;1.20;;;1.10;;
4810;SDS011;2419;51.276;6.472;2022-08-07T13:59:00;1.00;;;1.00;;
4810;SDS011;2419;51.276;6.472;2022-08-07T14:01:41;1.00;;;0.90;;
4810;SDS011;2419;51.276;6.472;2022-08-07T14:04:30;0.97;;;0.87;;
4810;SDS011;2419;51.276;6.472;2022-08-07T14:07:15;0.90;;;0.80;;
4810;SDS011;2419;51.276;6.472;2022-08-07T14:09:51;0.70;;;0.70;;
4810;SDS011;2419;51.276;6.472;2022-08-07T14:12:45;1.30;;;0.93;;
4810;SDS011;2419;51.276;6.472;2022-08-07T14:15:25;0.80;;;0.80;;
4810;SDS011;2419;51.276;6.472;2022-08-07T14:18:01;1.00;;;0.80;;
4810;SDS011;2419;51.276;6.472;2022-08-07T14:20:52;0.93;;;0.93;;
4810;SDS011;2419;51.276;6.472;2022-08-07T14:23:37;0.80;;;0.80;;
4810;SDS011;2419;51.276;6.472;2022-08-07T14:26:31;1.13;;;0.90;;
4810;SDS011;2419;51.276;6.472;2022-08-07T14:29:09;0.77;;;0.73;;
4810;SDS011;2419;51.276;6.472;2022-08-07T14:32:00;0.80;;;0.80;;
4810;SDS011;2419;51.276;6.472;2022-08-07T14:34:31;1.13;;;0.90;;
4810;SDS011;2419;51.276;6.472;2022-08-07T14:37:12;0.80;;;0.80;;
4810;SDS011;2419;51.276;6.472;2022-08-07T14:39:43;1.10;;;0.90;;
4810;SDS011;2419;51.276;6.472;2022-08-07T14:42:33;1.37;;;1.27;;
4810;SDS011;2419;51.276;6.472;2022-08-07T14:45:25;0.80;;;0.80;;
4810;SDS011;2419;51.276;6.472;2022-08-07T14:48:15;1.10;;;1.00;;
4810;SDS011;2419;51.276;6.472;2022-08-07T14:50:46;0.90;;;0.90;;
4810;SDS011;2419;51.276;6.472;2022-08-07T14:53:18;1.00;;;0.77;;
4810;SDS011;2419;51.276;6.472;2022-08-07T14:56:08;0.97;;;0.87;;
4810;SDS011;2419;51.276;6.472;2022-08-07T14:58:40;1.10;;;1.00;;
4810;SDS011;2419;51.276;6.472;2022-08-07T15:01:18;1.30;;;1.20;;
4810;SDS011;2419;51.276;6.472;2022-08-07T15:03:50;1.47;;;1.37;;
4810;SDS011;2419;51.276;6.472;2022-08-07T15:06:22;1.00;;;0.90;;
4810;SDS011;2419;51.276;6.472;2022-08-07T15:08:52;1.30;;;0.90;;
4810;SDS011;2419;51.276;6.472;2022-08-07T15:11:22;0.90;;;0.80;;
4810;SDS011;2419;51.276;6.472;2022-08-07T15:14:13;1.00;;;0.90;;
4810;SDS011;2419;51.276;6.472;2022-08-07T15:16:46;0.93;;;0.87;;
4810;SDS011;2419;51.276;6.472;2022-08-07T15:19:23;0.80;;;0.80;;
4810;SDS011;2419;51.276;6.472;2022-08-07T15:22:14;1.73;;;1.03;;
4810;SDS011;2419;51.276;6.472;2022-08-07T15:24:59;0.90;;;0.90;;
4810;SDS011;2419;51.276;6.472;2022-08-07T15:27:51;0.80;;;0.80;;
4810;SDS011;2419;51.276;6.472;2022-08-07T15:30:43;0.83;;;0.83;;
4810;SDS011;2419;51.276;6.472;2022-08-07T15:33:32;1.00;;;0.90;;
4810;SDS011;2419;51.276;6.472;2022-08-07T15:36:03;1.00;;;0.90;;
4810;SDS011;2419;51.276;6.472;2022-08-07T15:38:34;0.87;;;0.87;;
4810;SDS011;2419;51.276;6.472;2022-08-07T15:41:24;1.10;;;1.00;;
4810;SDS011;2419;51.276;6.472;2022-08-07T15:44:17;0.80;;;0.80;;
4810;SDS011;2419;51.276;6.472;2022-08-07T15:47:08;1.00;;;0.93;;
4810;SDS011;2419;51.276;6.472;2022-08-07T15:49:45;1.20;;;0.93;;
4810;SDS011;2419;51.276;6.472;2022-08-07T15:52:33;1.00;;;1.00;;
4810;SDS011;2419;51.276;6.472;2022-08-07T15:55:04;1.20;;;0.90;;
4810;SDS011;2419;51.276;6.472;2022-08-07T15:57:37;2.10;;;0.87;;
4810;SDS011;2419;51.276;6.472;2022-08-07T16:00:14;1.53;;;1.20;;
4810;SDS011;2419;51.276;6.472;2022-08-07T16:03:03;1.23;;;0.87;;
4810;SDS011;2419;51.276;6.472;2022-08-07T16:05:57;1.07;;;0.97;;
4810;SDS011;2419;51.276;6.472;2022-08-07T16:08:27;2.13;;;1.00;;
4810;SDS011;2419;51.276;6.472;2022-08-07T16:11:05;0.87;;;0.87;;
4810;SDS011;2419;51.276;6.472;2022-08-07T16:14:00;2.40;;;1.10;;
4810;SDS011;2419;51.276;6.472;2022-08-07T16:16:39;0.80;;;0.80;;
4810;SDS011;2419;51.276;6.472;2022-08-07T16:22:34;1.30;;;0.93;;
4810;SDS011;2419;51.276;6.472;2022-08-07T16:25:27;1.03;;;0.93;;
4810;SDS011;2419;51.276;6.472;2022-08-07T16:28:25;1.23;;;1.00;;
4810;SDS011;2419;51.276;6.472;2022-08-07T16:31:25;1.20;;;1.10;;
4810;SDS011;2419;51.276;6.472;2022-08-07T16:34:20;1.10;;;0.87;;
4810;SDS011;2419;51.276;6.472;2022-08-07T16:36:57;1.00;;;0.90;;
4810;SDS011;2419;51.276;6.472;2022-08-07T16:40:12;1.30;;;1.00;;
4810;SDS011;2419;51.276;6.472;2022-08-07T16:43:03;0.90;;;0.90;;
4810;SDS011;2419;51.276;6.472;2022-08-07T16:45:46;1.80;;;1.33;;
4810;SDS011;2419;51.276;6.472;2022-08-07T16:52:19;1.47;;;1.20;;
4810;SDS011;2419;51.276;6.472;2022-08-07T16:55:19;0.80;;;0.80;;
4810;SDS011;2419;51.276;6.472;2022-08-07T16:58:15;1.20;;;1.10;;
4810;SDS011;2419;51.276;6.472;2022-08-07T17:01:18;1.13;;;0.90;;
4810;SDS011;2419;51.276;6.472;2022-08-07T17:04:09;1.30;;;1.20;;
4810;SDS011;2419;51.276;6.472;2022-08-07T17:06:43;0.90;;;0.80;;
4810;SDS011;2419;51.276;6.472;2022-08-07T17:09:32;1.57;;;1.30;;
4810;SDS011;2419;51.276;6.472;2022-08-07T17:12:27;1.10;;;0.97;;
4810;SDS011;2419;51.276;6.472;2022-08-07T17:15:15;1.83;;;1.00;;